Time;durP1;ratioP1;P1;durP2;ratioP2;P2;SDS_P1;SDS_P2;PMS_P1;PMS_P2;Temp;Humidity;BMP_temperature;BMP_pressure;BME280_temperature;BME280_humidity;BME280_pressure;Samples;Min_cycle;Max_cycle;Signal;HPM_P1;HPM_P2
2022/03/27 00:02:18;;;;;;;25.10;12.00;;;8.50;38.90;;;;;;5086303;28;20209;-60
2022/03/27 00:04:44;;;;;;;28.40;10.83;;;8.50;38.50;;;;;;5089352;28;20178;-60
2022/03/27 00:07:09;;;;;;;21.60;9.97;;;8.50;38.40;;;;;;5085755;28;20525;-61
2022/03/27 00:09:35;;;;;;;24.90;12.03;;;8.40;38.60;;;;;;5071268;28;20420;-59
2022/03/27 00:12:02;;;;;;;23.80;11.40;;;8.40;39.00;;;;;;5087756;28;20213;-60
2022/03/27 00:14:28;;;;;;;28.57;11.90;;;8.30;39.10;;;;;;5097979;28;20530;-59
2022/03/27 00:16:54;;;;;;;25.37;11.70;;;8.30;39.10;;;;;;5081357;28;20864;-60
2022/03/27 00:19:20;;;;;;;24.53;10.60;;;8.20;39.10;;;;;;5093688;28;20169;-61
2022/03/27 00:21:46;;;;;;;27.23;11.40;;;8.20;39.10;;;;;;5096067;28;21026;-59
2022/03/27 00:24:11;;;;;;;27.83;11.87;;;8.20;39.10;;;;;;5089221;28;20419;-59
2022/03/27 00:26:37;;;;;;;25.50;11.80;;;8.20;39.20;;;;;;5089603;28;20201;-60
2022/03/27 00:29:04;;;;;;;28.60;11.00;;;8.20;39.10;;;;;;5087268;28;20866;-60
2022/03/27 00:31:35;;;;;;;32.67;12.53;;;8.20;39.40;;;;;;5084550;28;20557;-60
2022/03/27 00:34:02;;;;;;;26.13;12.27;;;8.10;39.30;;;;;;5063071;28;20456;-59
2022/03/27 00:36:27;;;;;;;31.90;12.00;;;8.10;39.30;;;;;;5086915;28;20443;-60
2022/03/27 00:38:53;;;;;;;30.57;12.77;;;8.10;39.40;;;;;;5070195;28;20804;-59
2022/03/27 00:41:19;;;;;;;29.47;12.00;;;8.10;39.40;;;;;;5087766;28;20529;-59
2022/03/27 00:43:45;;;;;;;27.13;12.43;;;8.00;39.50;;;;;;5090859;28;20266;-59
2022/03/27 00:46:11;;;;;;;26.47;12.60;;;8.00;39.60;;;;;;5090137;28;20205;-59
2022/03/27 00:48:37;;;;;;;29.00;12.10;;;8.00;39.60;;;;;;5084942;28;21109;-59
2022/03/27 00:51:04;;;;;;;26.90;11.33;;;7.90;39.60;;;;;;5082435;28;21099;-60
2022/03/27 00:53:29;;;;;;;27.23;11.90;;;7.90;39.70;;;;;;5090415;28;20428;-59
2022/03/27 00:55:55;;;;;;;30.20;12.07;;;7.90;39.80;;;;;;5084225;28;20955;-59
2022/03/27 00:58:22;;;;;;;33.07;12.57;;;7.80;39.80;;;;;;5080048;28;20197;-60
2022/03/27 01:00:47;;;;;;;27.80;11.83;;;7.80;39.80;;;;;;5072606;28;20475;-59
2022/03/27 01:03:16;;;;;;;25.30;12.00;;;7.80;40.10;;;;;;5087274;28;20482;-60
2022/03/27 01:05:43;;;;;;;30.30;13.10;;;7.70;40.20;;;;;;5086428;28;20232;-59
2022/03/27 01:08:11;;;;;;;26.33;11.80;;;7.70;40.50;;;;;;5076707;28;20462;-59
2022/03/27 01:10:38;;;;;;;36.53;14.17;;;7.60;40.60;;;;;;5087526;28;20503;-59
2022/03/27 01:13:16;;;;;;;27.80;12.13;;;7.60;40.50;;;;;;5087925;28;20464;-59
2022/03/27 01:15:46;;;;;;;38.50;12.63;;;7.60;40.30;;;;;;5081778;28;20422;-60
2022/03/27 01:18:12;;;;;;;32.23;12.63;;;7.60;40.40;;;;;;5068394;28;20434;-60
2022/03/27 01:20:40;;;;;;;26.87;11.97;;;7.60;40.30;;;;;;5085473;28;20421;-58
2022/03/27 01:23:11;;;;;;;30.93;12.50;;;7.60;40.50;;;;;;5064935;28;20221;-59
2022/03/27 01:25:39;;;;;;;27.03;12.43;;;7.60;40.50;;;;;;5088204;28;20971;-59
2022/03/27 01:28:06;;;;;;;25.73;11.20;;;7.60;40.50;;;;;;5088168;28;20420;-58
2022/03/27 01:30:32;;;;;;;37.37;13.43;;;7.60;40.40;;;;;;5088315;28;20420;-58
2022/03/27 01:32:58;;;;;;;27.37;12.07;;;7.60;40.50;;;;;;5085467;28;20517;-59
2022/03/27 01:35:24;;;;;;;27.53;12.77;;;7.60;40.40;;;;;;5087554;28;20517;-59
2022/03/27 01:37:50;;;;;;;30.77;11.80;;;7.60;40.40;;;;;;5076385;28;20185;-59
2022/03/27 01:40:17;;;;;;;25.37;11.33;;;7.50;40.50;;;;;;5084937;28;20419;-58
2022/03/27 01:42:43;;;;;;;36.10;12.77;;;7.50;40.60;;;;;;5076576;28;20189;-59
2022/03/27 01:45:09;;;;;;;27.77;12.57;;;7.50;40.40;;;;;;5079035;28;20427;-58
2022/03/27 01:47:36;;;;;;;26.07;10.97;;;7.50;40.40;;;;;;5085983;28;20431;-59
2022/03/27 01:50:03;;;;;;;29.33;11.80;;;7.50;40.50;;;;;;5093439;28;20430;-57
2022/03/27 01:52:29;;;;;;;26.97;12.43;;;7.50;40.50;;;;;;5077936;28;20458;-58
2022/03/27 01:54:55;;;;;;;33.33;11.07;;;7.50;40.30;;;;;;5079368;28;20507;-59
2022/03/27 01:57:20;;;;;;;30.03;12.53;;;7.50;40.60;;;;;;5070243;28;20178;-59
2022/03/27 01:59:46;;;;;;;24.13;11.47;;;7.40;40.30;;;;;;5080798;28;20268;-58
2022/03/27 02:02:12;;;;;;;31.20;12.23;;;7.40;40.40;;;;;;5084018;28;20829;-59
2022/03/27 02:04:37;;;;;;;27.80;13.43;;;7.40;40.50;;;;;;5083249;28;20170;-58
2022/03/27 02:07:03;;;;;;;24.60;11.20;;;7.30;40.50;;;;;;5082801;28;20294;-59
2022/03/27 02:09:29;;;;;;;21.33;10.13;;;7.30;40.60;;;;;;5073817;28;20267;-59
2022/03/27 02:11:55;;;;;;;26.53;11.03;;;7.30;40.70;;;;;;5088078;28;20440;-59
2022/03/27 02:14:21;;;;;;;26.53;10.47;;;7.20;40.80;;;;;;5086268;28;20173;-59
2022/03/27 02:16:47;;;;;;;37.30;12.03;;;7.20;40.80;;;;;;5085339;28;20190;-59
2022/03/27 02:19:12;;;;;;;27.80;11.63;;;7.20;40.90;;;;;;5083852;28;20439;-58
2022/03/27 02:21:39;;;;;;;26.63;11.00;;;7.10;40.90;;;;;;5088579;28;20250;-59
2022/03/27 02:24:06;;;;;;;34.00;11.63;;;7.10;41.10;;;;;;5079152;28;20182;-60
2022/03/27 02:26:32;;;;;;;26.53;12.80;;;7.10;41.20;;;;;;5082176;28;20464;-58
2022/03/27 02:28:58;;;;;;;32.97;11.60;;;7.10;41.40;;;;;;5081247;28;20532;-58
2022/03/27 02:31:24;;;;;;;26.83;11.07;;;7.10;41.70;;;;;;5086697;28;20527;-59
2022/03/27 02:33:50;;;;;;;28.83;11.33;;;7.00;41.70;;;;;;5079561;28;20436;-58
2022/03/27 02:36:16;;;;;;;27.53;11.60;;;6.90;41.60;;;;;;5080485;28;20372;-58
2022/03/27 02:38:43;;;;;;;27.37;11.40;;;6.90;41.70;;;;;;5083950;28;20660;-58
2022/03/27 02:41:09;;;;;;;28.63;12.83;;;6.90;41.90;;;;;;5087511;28;20462;-58
2022/03/27 02:43:38;;;;;;;32.97;11.90;;;6.80;41.90;;;;;;5087690;28;20452;-59
2022/03/27 02:46:05;;;;;;;26.33;11.03;;;6.80;42.20;;;;;;5088988;28;20229;-59
2022/03/27 02:48:31;;;;;;;35.97;11.50;;;6.70;42.40;;;;;;5087609;28;20423;-59
2022/03/27 02:50:57;;;;;;;26.60;11.77;;;6.70;42.70;;;;;;5086758;28;20795;-59
2022/03/27 02:53:23;;;;;;;29.03;11.03;;;6.60;42.90;;;;;;5086799;28;20452;-59
2022/03/27 02:55:48;;;;;;;23.47;12.10;;;6.50;43.20;;;;;;5078813;28;20177;-59
2022/03/27 02:58:14;;;;;;;26.23;11.60;;;6.50;43.20;;;;;;5084978;28;20446;-59
2022/03/27 03:00:43;;;;;;;23.67;11.13;;;6.40;43.50;;;;;;5091716;28;20569;-59
2022/03/27 03:03:10;;;;;;;26.70;12.33;;;6.30;43.60;;;;;;5081496;28;20472;-59
2022/03/27 03:05:40;;;;;;;25.43;10.93;;;6.30;43.90;;;;;;5080010;28;20507;-58
2022/03/27 03:08:10;;;;;;;25.93;11.07;;;6.20;43.90;;;;;;5087586;28;20506;-60
2022/03/27 03:10:43;;;;;;;25.87;10.17;;;6.10;43.90;;;;;;5084300;28;20518;-58
2022/03/27 03:13:09;;;;;;;24.07;11.03;;;6.10;44.20;;;;;;5075426;28;20484;-59
2022/03/27 03:15:39;;;;;;;29.60;11.10;;;6.00;44.30;;;;;;5083881;28;20459;-59
2022/03/27 03:18:06;;;;;;;34.63;11.90;;;5.90;44.50;;;;;;5081694;28;20428;-60
2022/03/27 03:20:33;;;;;;;28.87;11.63;;;5.80;44.50;;;;;;5066626;28;20475;-59
2022/03/27 03:22:59;;;;;;;26.83;11.17;;;5.80;44.80;;;;;;5070134;28;21059;-59
2022/03/27 03:25:24;;;;;;;30.73;11.37;;;5.70;45.00;;;;;;5089614;28;20435;-59
2022/03/27 03:27:50;;;;;;;25.73;11.70;;;5.70;45.00;;;;;;5069966;28;20772;-59
2022/03/27 03:30:17;;;;;;;35.77;11.60;;;5.60;45.20;;;;;;5071049;28;20173;-58
2022/03/27 03:32:43;;;;;;;23.73;10.87;;;5.60;45.30;;;;;;5085910;28;20627;-59
2022/03/27 03:35:10;;;;;;;22.07;10.10;;;5.60;45.40;;;;;;5081380;28;20432;-60
2022/03/27 03:37:36;;;;;;;28.47;12.20;;;5.50;45.60;;;;;;5083252;28;21087;-59
2022/03/27 03:40:03;;;;;;;26.50;10.93;;;5.40;46.20;;;;;;5087927;28;20451;-59
2022/03/27 03:42:28;;;;;;;31.20;12.23;;;5.40;45.90;;;;;;5087765;28;20193;-59
2022/03/27 03:44:54;;;;;;;26.30;11.50;;;5.40;46.00;;;;;;5087842;28;20557;-59
2022/03/27 03:47:20;;;;;;;24.10;11.63;;;5.30;46.00;;;;;;5092982;28;20204;-59
2022/03/27 03:49:46;;;;;;;22.80;11.67;;;5.30;46.00;;;;;;5091431;28;20781;-59
2022/03/27 03:52:12;;;;;;;27.50;12.10;;;5.20;46.00;;;;;;5081338;28;20202;-59
2022/03/27 03:54:37;;;;;;;30.87;13.37;;;5.10;46.10;;;;;;5084617;28;20182;-59
2022/03/27 03:57:05;;;;;;;27.97;12.33;;;5.10;46.50;;;;;;5085799;28;20945;-59
2022/03/27 03:59:36;;;;;;;28.80;11.63;;;5.10;46.70;;;;;;5086147;28;20197;-60
2022/03/27 04:02:02;;;;;;;34.77;12.63;;;5.10;47.00;;;;;;5069196;28;20468;-58
2022/03/27 04:04:28;;;;;;;26.77;12.70;;;5.00;46.90;;;;;;5088063;28;20935;-59
2022/03/27 04:06:54;;;;;;;28.30;12.50;;;4.90;47.40;;;;;;5086621;28;20462;-59
2022/03/27 04:09:20;;;;;;;32.63;13.10;;;4.90;47.10;;;;;;5089909;28;20445;-59
2022/03/27 04:11:47;;;;;;;31.23;13.40;;;4.80;47.30;;;;;;5086312;28;20204;-58
2022/03/27 04:14:13;;;;;;;29.73;13.90;;;4.70;47.60;;;;;;5086222;28;20253;-59
2022/03/27 04:16:38;;;;;;;24.30;12.40;;;4.60;47.70;;;;;;5083524;28;20519;-58
2022/03/27 04:19:05;;;;;;;34.03;13.13;;;4.50;47.80;;;;;;5090589;28;20185;-58
2022/03/27 04:21:31;;;;;;;26.90;13.20;;;4.50;48.00;;;;;;5088550;28;20192;-59
2022/03/27 04:23:57;;;;;;;25.90;11.30;;;4.40;48.10;;;;;;5061398;28;21170;-58
2022/03/27 04:26:23;;;;;;;35.87;13.37;;;4.40;48.20;;;;;;5090495;28;20458;-59
2022/03/27 04:28:48;;;;;;;31.10;13.20;;;4.30;48.20;;;;;;5089865;28;20174;-59
2022/03/27 04:31:14;;;;;;;25.23;12.70;;;4.30;48.40;;;;;;5086910;28;20188;-59
2022/03/27 04:33:40;;;;;;;30.93;13.10;;;4.20;48.70;;;;;;5060906;28;20173;-59
2022/03/27 04:36:08;;;;;;;23.83;12.10;;;4.20;48.80;;;;;;5083881;28;20170;-59
2022/03/27 04:38:34;;;;;;;31.77;12.97;;;4.20;48.90;;;;;;5070521;28;20584;-59
2022/03/27 04:41:00;;;;;;;32.47;12.17;;;4.10;48.90;;;;;;5089043;28;20458;-59
2022/03/27 04:43:27;;;;;;;30.20;13.10;;;4.10;48.90;;;;;;5071414;28;20199;-59
2022/03/27 04:45:52;;;;;;;32.57;12.20;;;4.00;48.90;;;;;;5084355;28;20275;-60
2022/03/27 04:48:18;;;;;;;24.90;13.20;;;3.90;48.80;;;;;;5085833;28;21086;-59
2022/03/27 04:50:44;;;;;;;24.60;12.70;;;3.90;48.90;;;;;;5087878;28;20231;-59
2022/03/27 04:53:10;;;;;;;26.83;13.50;;;3.90;49.10;;;;;;5091361;28;20197;-59
2022/03/27 04:55:36;;;;;;;28.60;14.10;;;3.90;49.30;;;;;;5083873;28;20428;-59
2022/03/27 04:58:02;;;;;;;31.83;13.37;;;3.90;49.80;;;;;;5088005;28;20188;-58
2022/03/27 05:00:28;;;;;;;33.50;13.23;;;3.90;49.90;;;;;;5085479;28;20653;-59
2022/03/27 05:02:55;;;;;;;35.67;14.17;;;3.80;49.80;;;;;;5074171;28;20293;-58
2022/03/27 05:05:21;;;;;;;23.37;12.23;;;3.80;50.00;;;;;;5086516;28;20864;-59
2022/03/27 05:07:46;;;;;;;30.20;12.67;;;3.80;50.00;;;;;;5090982;28;20411;-58
2022/03/27 05:10:13;;;;;;;26.17;12.03;;;3.80;50.10;;;;;;5088857;28;22038;-59
2022/03/27 05:12:39;;;;;;;37.03;13.70;;;3.70;50.10;;;;;;5084329;28;20193;-59
2022/03/27 05:15:06;;;;;;;27.93;12.70;;;3.70;50.00;;;;;;5076573;28;20940;-59
2022/03/27 05:17:31;;;;;;;30.27;12.80;;;3.70;50.00;;;;;;5079388;28;20490;-59
2022/03/27 05:19:57;;;;;;;28.53;11.93;;;3.60;50.00;;;;;;5089127;28;20424;-59
2022/03/27 05:22:23;;;;;;;31.93;13.37;;;3.60;50.20;;;;;;5073408;28;20216;-59
2022/03/27 05:24:49;;;;;;;34.47;13.77;;;3.50;50.20;;;;;;5086574;28;20174;-59
2022/03/27 05:27:18;;;;;;;33.43;13.33;;;3.50;50.50;;;;;;5091373;28;20723;-58
2022/03/27 05:29:44;;;;;;;28.53;12.03;;;3.50;50.70;;;;;;5086784;28;20450;-59
2022/03/27 05:32:10;;;;;;;27.00;12.00;;;3.40;50.80;;;;;;5082795;28;20474;-58
2022/03/27 05:34:36;;;;;;;32.33;12.13;;;3.40;50.90;;;;;;5086004;28;20170;-58
2022/03/27 05:37:03;;;;;;;30.20;13.27;;;3.40;51.00;;;;;;5083806;28;20752;-59
2022/03/27 05:39:29;;;;;;;31.20;12.37;;;3.50;51.20;;;;;;5087706;28;20174;-59
2022/03/27 05:41:54;;;;;;;27.80;13.00;;;3.40;51.10;;;;;;5088822;28;20848;-58
2022/03/27 05:44:20;;;;;;;28.37;12.27;;;3.50;51.30;;;;;;5087157;28;20423;-58
2022/03/27 05:46:46;;;;;;;31.03;12.83;;;3.50;51.40;;;;;;5085709;28;20201;-58
2022/03/27 05:49:11;;;;;;;35.67;13.00;;;3.50;51.40;;;;;;5085921;28;20178;-58
2022/03/27 05:51:37;;;;;;;29.70;12.83;;;3.50;51.40;;;;;;5062246;28;20217;-58
2022/03/27 05:54:02;;;;;;;27.60;13.00;;;3.50;51.60;;;;;;5079630;28;20201;-58
2022/03/27 05:56:28;;;;;;;30.50;13.33;;;3.50;51.60;;;;;;5088992;28;20182;-57
2022/03/27 05:58:54;;;;;;;30.07;14.90;;;3.60;51.70;;;;;;5070186;28;20174;-59
2022/03/27 06:01:19;;;;;;;27.30;12.53;;;3.60;51.70;;;;;;5083065;28;20176;-58
2022/03/27 06:03:45;;;;;;;30.60;12.63;;;3.70;51.90;;;;;;5083510;28;20176;-58
2022/03/27 06:06:12;;;;;;;32.03;12.20;;;3.70;51.80;;;;;;5077083;28;20221;-59
2022/03/27 06:08:37;;;;;;;26.50;12.70;;;3.80;51.60;;;;;;5088660;28;20813;-58
2022/03/27 06:11:05;;;;;;;34.87;14.20;;;3.90;51.50;;;;;;5088281;28;20453;-57
2022/03/27 06:13:30;;;;;;;32.23;14.80;;;4.00;51.40;;;;;;5068092;28;20213;-58
2022/03/27 06:15:56;;;;;;;30.00;13.33;;;4.00;51.30;;;;;;5080970;28;20948;-57
2022/03/27 06:18:21;;;;;;;29.50;13.10;;;4.10;51.20;;;;;;5084163;28;20185;-59
2022/03/27 06:20:47;;;;;;;27.90;12.20;;;4.20;51.20;;;;;;5089233;28;20177;-58
2022/03/27 06:23:13;;;;;;;34.80;12.70;;;4.40;51.20;;;;;;5083069;28;20197;-59
2022/03/27 06:25:39;;;;;;;27.50;12.30;;;4.40;50.90;;;;;;5080639;28;20201;-58
2022/03/27 06:28:05;;;;;;;31.20;13.83;;;4.60;50.80;;;;;;5083211;28;20456;-58
2022/03/27 06:30:32;;;;;;;28.93;12.20;;;4.60;50.70;;;;;;5079120;28;20177;-58
2022/03/27 06:32:59;;;;;;;39.93;14.70;;;4.80;50.80;;;;;;5078020;28;20437;-58
2022/03/27 06:35:25;;;;;;;26.03;13.00;;;4.80;50.60;;;;;;5083110;28;20411;-59
2022/03/27 06:37:52;;;;;;;27.07;12.43;;;4.90;50.60;;;;;;5085175;28;20423;-59
2022/03/27 06:40:20;;;;;;;34.00;14.20;;;5.00;50.70;;;;;;5083823;28;20480;-59
2022/03/27 06:42:46;;;;;;;30.07;13.63;;;5.10;50.60;;;;;;5078328;28;20451;-58
2022/03/27 06:45:13;;;;;;;24.37;12.33;;;5.10;50.40;;;;;;5080176;28;20432;-54
2022/03/27 06:47:40;;;;;;;28.43;13.20;;;5.20;50.20;;;;;;5061687;28;20198;-57
2022/03/27 06:50:07;;;;;;;28.67;13.40;;;5.30;50.50;;;;;;5074126;28;20512;-59
2022/03/27 06:52:34;;;;;;;37.60;12.70;;;5.40;50.50;;;;;;5076024;28;20443;-61
2022/03/27 06:55:01;;;;;;;31.20;12.70;;;5.50;50.50;;;;;;5070931;28;23154;-60
2022/03/27 06:57:26;;;;;;;31.83;12.23;;;5.50;50.70;;;;;;5076596;28;20435;-59
2022/03/27 07:05:23;;;;;;;33.03;11.23;;;5.80;50.30;;;;;;5078251;28;20438;-59
2022/03/27 07:07:49;;;;;;;29.73;12.53;;;5.90;50.20;;;;;;5073622;28;20432;-59
2022/03/27 07:10:16;;;;;;;29.33;12.70;;;6.00;50.30;;;;;;5070834;28;20585;-60
2022/03/27 07:12:42;;;;;;;29.87;12.23;;;6.00;50.20;;;;;;5057209;28;20484;-60
2022/03/27 07:15:09;;;;;;;26.50;12.80;;;6.10;50.30;;;;;;5075894;28;20426;-60
2022/03/27 07:17:46;;;;;;;28.07;11.70;;;6.20;50.50;;;;;;5047040;28;20423;-60
2022/03/27 07:20:12;;;;;;;33.13;13.30;;;6.30;50.50;;;;;;5078241;28;20565;-59
2022/03/27 07:22:39;;;;;;;27.07;11.33;;;6.50;50.30;;;;;;5085602;28;20470;-60
2022/03/27 07:25:07;;;;;;;30.77;12.20;;;6.50;50.40;;;;;;5058003;28;20462;-61
2022/03/27 07:27:34;;;;;;;29.97;13.33;;;6.60;50.60;;;;;;5083380;28;20490;-61
2022/03/27 07:30:00;;;;;;;33.03;13.20;;;6.80;50.70;;;;;;5085904;28;20432;-61
2022/03/27 07:32:26;;;;;;;30.10;13.07;;;6.90;50.40;;;;;;5083440;28;20451;-58
2022/03/27 07:34:51;;;;;;;33.33;13.40;;;7.00;50.20;;;;;;5086518;28;20201;-60
2022/03/27 07:37:17;;;;;;;37.60;12.20;;;7.10;50.00;;;;;;5093863;28;20751;-60
2022/03/27 07:39:42;;;;;;;28.00;13.50;;;7.30;49.70;;;;;;5083009;28;20178;-60
2022/03/27 07:42:08;;;;;;;26.43;11.30;;;7.50;49.60;;;;;;5084998;28;20573;-60
2022/03/27 07:44:34;;;;;;;26.33;11.30;;;7.70;48.90;;;;;;5084303;28;20264;-62
2022/03/27 07:47:00;;;;;;;28.83;12.23;;;7.90;48.80;;;;;;5084481;28;20542;-60
2022/03/27 07:49:26;;;;;;;25.13;11.63;;;8.10;48.50;;;;;;5084096;28;20854;-60
2022/03/27 07:51:54;;;;;;;23.43;12.13;;;8.30;48.10;;;;;;5085494;28;20191;-61
2022/03/27 07:54:20;;;;;;;27.20;12.30;;;8.50;47.60;;;;;;5085562;28;20455;-59
2022/03/27 07:56:46;;;;;;;26.73;11.73;;;8.70;47.20;;;;;;5079543;28;20432;-60
2022/03/27 07:59:11;;;;;;;27.30;11.87;;;8.90;46.90;;;;;;5083394;28;20444;-62
2022/03/27 08:01:37;;;;;;;29.87;11.97;;;9.00;46.70;;;;;;5063998;28;20490;-60
2022/03/27 08:04:02;;;;;;;20.67;10.63;;;9.20;46.40;;;;;;5081887;28;20264;-58
2022/03/27 08:06:29;;;;;;;33.87;12.13;;;9.40;45.80;;;;;;5078753;28;20210;-60
2022/03/27 08:08:56;;;;;;;28.27;12.50;;;9.60;45.30;;;;;;5086636;28;20748;-59
2022/03/27 08:11:23;;;;;;;28.70;11.30;;;9.80;45.10;;;;;;5061666;28;20866;-60
2022/03/27 08:13:49;;;;;;;27.20;12.30;;;10.00;43.90;;;;;;5075469;28;20430;-60
2022/03/27 08:16:15;;;;;;;27.50;11.20;;;10.20;44.00;;;;;;5078039;28;20431;-60
2022/03/27 08:18:42;;;;;;;28.73;11.10;;;10.30;43.20;;;;;;5079176;28;20878;-60
2022/03/27 08:21:07;;;;;;;35.17;11.57;;;10.60;43.00;;;;;;5082483;28;20439;-62
2022/03/27 08:23:33;;;;;;;28.87;11.00;;;10.70;42.40;;;;;;5083793;28;20950;-60
2022/03/27 08:29:04;;;;;;;22.53;10.83;;;11.10;40.90;;;;;;4980553;28;20673;-60
2022/03/27 08:31:31;;;;;;;23.90;10.27;;;11.40;40.60;;;;;;4977234;28;20459;-60
2022/03/27 08:33:57;;;;;;;24.33;9.90;;;11.50;39.40;;;;;;5020442;28;20185;-59
2022/03/27 08:36:22;;;;;;;26.03;10.90;;;11.70;39.00;;;;;;5062608;28;20802;-60
2022/03/27 08:38:48;;;;;;;23.20;10.43;;;11.90;38.50;;;;;;5082135;28;20443;-59
2022/03/27 08:41:16;;;;;;;30.17;10.73;;;12.10;38.50;;;;;;5078578;28;20177;-60
2022/03/27 08:43:43;;;;;;;21.93;10.00;;;12.30;37.90;;;;;;5078826;28;20223;-60
2022/03/27 08:46:09;;;;;;;27.77;10.20;;;12.40;36.80;;;;;;5077116;28;20455;-60
2022/03/27 08:48:37;;;;;;;18.10;10.03;;;12.50;36.00;;;;;;5067345;28;20800;-61
2022/03/27 08:51:25;;;;;;;29.63;11.10;;;12.60;35.90;;;;;;5080247;28;20419;-60
2022/03/27 08:54:04;;;;;;;28.93;11.80;;;12.70;35.90;;;;;;5074831;28;21836;-61
2022/03/27 08:56:32;;;;;;;22.43;11.30;;;12.90;34.90;;;;;;5054946;28;20434;-60
2022/03/27 08:59:07;;;;;;;25.50;11.60;;;13.00;34.90;;;;;;5076245;28;20444;-60
2022/03/27 09:01:33;;;;;;;29.43;11.97;;;13.20;34.20;;;;;;5068647;28;20545;-58
2022/03/27 09:03:59;;;;;;;35.40;13.70;;;13.30;33.70;;;;;;5072056;28;21026;-60
2022/03/27 09:06:25;;;;;;;32.23;13.80;;;13.40;33.10;;;;;;5069835;28;20579;-59
2022/03/27 09:08:53;;;;;;;31.90;13.80;;;13.50;32.70;;;;;;5079813;28;20431;-59
2022/03/27 09:11:20;;;;;;;29.90;14.47;;;13.60;33.10;;;;;;5079271;28;20516;-59
2022/03/27 09:13:48;;;;;;;43.53;13.77;;;13.80;33.00;;;;;;5072106;28;20427;-60
2022/03/27 09:16:14;;;;;;;27.23;14.70;;;13.90;33.20;;;;;;5070829;28;20903;-61
2022/03/27 09:18:44;;;;;;;30.53;14.73;;;14.10;33.30;;;;;;5072892;28;20459;-59
2022/03/27 09:21:10;;;;;;;31.63;14.43;;;14.30;33.10;;;;;;5072362;28;20217;-61
2022/03/27 09:23:36;;;;;;;26.50;14.53;;;14.50;32.90;;;;;;5071308;28;20460;-60
2022/03/27 09:26:07;;;;;;;32.10;14.50;;;14.60;32.30;;;;;;5070167;28;20709;-58
2022/03/27 09:28:33;;;;;;;29.83;15.53;;;14.70;32.70;;;;;;5069853;28;20497;-60
2022/03/27 09:31:01;;;;;;;35.37;15.90;;;14.80;32.10;;;;;;5072798;28;20432;-60
2022/03/27 09:33:38;;;;;;;26.63;13.40;;;14.80;32.00;;;;;;5073577;28;20193;-60
2022/03/27 09:36:04;;;;;;;31.57;12.20;;;15.00;32.90;;;;;;5068819;28;20419;-61
2022/03/27 09:38:30;;;;;;;32.53;13.60;;;15.20;33.40;;;;;;5053845;28;20438;-59
2022/03/27 09:40:56;;;;;;;25.30;12.20;;;15.40;33.20;;;;;;5067914;28;20432;-60
2022/03/27 09:43:22;;;;;;;31.30;13.37;;;15.50;32.80;;;;;;5052862;28;20254;-60
2022/03/27 09:45:59;;;;;;;28.07;13.87;;;15.60;32.60;;;;;;5070278;28;20217;-59
2022/03/27 09:48:26;;;;;;;29.80;14.73;;;15.80;33.10;;;;;;5072784;28;20432;-63
2022/03/27 09:50:53;;;;;;;30.80;15.33;;;15.90;32.80;;;;;;5062147;28;20442;-60
2022/03/27 09:53:29;;;;;;;27.20;13.63;;;16.10;32.80;;;;;;5065476;28;20464;-60
2022/03/27 09:56:00;;;;;;;30.70;14.17;;;16.20;32.50;;;;;;5051026;28;20465;-61
2022/03/27 09:58:43;;;;;;;35.20;14.70;;;16.30;32.40;;;;;;5065572;28;20429;-60
2022/03/27 10:01:22;;;;;;;31.13;15.30;;;16.30;32.20;;;;;;5067848;28;20440;-60
2022/03/27 10:04:16;;;;;;;41.63;17.10;;;16.40;32.70;;;;;;5064127;28;21050;-60
2022/03/27 10:06:43;;;;;;;33.53;15.80;;;16.60;33.30;;;;;;5070917;28;21158;-61
2022/03/27 10:09:11;;;;;;;29.13;15.93;;;16.70;33.00;;;;;;5068018;28;20520;-60
2022/03/27 10:11:38;;;;;;;32.30;17.30;;;16.80;32.50;;;;;;5049635;28;20530;-61
2022/03/27 10:14:06;;;;;;;33.17;15.53;;;16.90;32.20;;;;;;5062407;28;20431;-59
2022/03/27 10:16:34;;;;;;;29.77;15.57;;;16.90;31.80;;;;;;5064934;28;20439;-59
2022/03/27 10:19:18;;;;;;;32.97;16.07;;;17.00;33.10;;;;;;5047011;28;20478;-59
2022/03/27 10:21:45;;;;;;;31.77;16.70;;;17.20;33.70;;;;;;5045312;28;20553;-60
2022/03/27 10:24:12;;;;;;;37.33;15.63;;;17.30;33.10;;;;;;5061618;28;21495;-60
2022/03/27 10:26:39;;;;;;;34.17;15.93;;;17.50;33.40;;;;;;5059094;28;20471;-60
2022/03/27 10:29:07;;;;;;;33.13;15.90;;;17.60;32.90;;;;;;5066099;28;20453;-61
2022/03/27 10:31:33;;;;;;;35.67;15.87;;;17.70;32.60;;;;;;5065197;28;20564;-60
2022/03/27 10:34:00;;;;;;;36.07;16.77;;;17.80;31.90;;;;;;5064483;28;20539;-60
2022/03/27 10:36:34;;;;;;;34.30;16.23;;;17.90;32.50;;;;;;5065921;28;20182;-61
2022/03/27 10:39:18;;;;;;;29.17;15.47;;;17.90;32.10;;;;;;5066134;28;20796;-60
2022/03/27 10:41:50;;;;;;;28.70;16.27;;;18.00;31.90;;;;;;5065395;28;20833;-61
2022/03/27 10:44:34;;;;;;;33.33;16.67;;;18.10;32.20;;;;;;5066002;28;20583;-55
2022/03/27 10:47:12;;;;;;;32.40;18.70;;;18.30;32.10;;;;;;5066869;28;20461;-60
2022/03/27 10:49:39;;;;;;;29.00;16.00;;;18.40;31.00;;;;;;5068996;28;20427;-62
2022/03/27 10:52:05;;;;;;;30.40;15.53;;;18.50;32.40;;;;;;5068156;28;20469;-61
2022/03/27 10:54:32;;;;;;;44.30;18.90;;;18.70;31.10;;;;;;5069825;28;20431;-61
2022/03/27 10:56:58;;;;;;;33.73;17.57;;;18.70;31.00;;;;;;5070329;28;20936;-61
2022/03/27 10:59:27;;;;;;;36.17;17.20;;;18.80;29.80;;;;;;5057955;28;20459;-63
2022/03/27 11:02:03;;;;;;;37.40;19.00;;;18.90;29.90;;;;;;5072196;28;20459;-61
2022/03/27 11:04:37;;;;;;;26.10;14.80;;;18.90;29.40;;;;;;5046446;28;20442;-60
2022/03/27 11:07:19;;;;;;;40.60;18.80;;;19.00;29.80;;;;;;5070224;28;20524;-61
2022/03/27 11:09:45;;;;;;;35.13;17.37;;;19.10;29.50;;;;;;5074424;28;20460;-59
2022/03/27 11:12:24;;;;;;;24.37;14.77;;;19.10;29.80;;;;;;5068616;28;20543;-61
2022/03/27 11:14:52;;;;;;;27.73;15.40;;;19.30;29.60;;;;;;5048774;28;20182;-61
2022/03/27 11:17:36;;;;;;;29.73;15.10;;;19.30;27.90;;;;;;5065932;28;20449;-59
2022/03/27 11:20:25;;;;;;;29.70;15.27;;;19.30;29.40;;;;;;5071339;28;21246;-59
2022/03/27 11:22:59;;;;;;;28.00;15.10;;;19.40;30.20;;;;;;5072737;28;21072;-60
2022/03/27 11:25:38;;;;;;;26.63;14.53;;;19.50;30.30;;;;;;5072080;28;20437;-58
2022/03/27 11:28:06;;;;;;;29.03;15.90;;;19.70;30.00;;;;;;5075234;28;20459;-60
2022/03/27 11:30:34;;;;;;;29.37;15.10;;;19.80;29.70;;;;;;5069804;28;20435;-59
2022/03/27 11:33:22;;;;;;;25.17;15.60;;;19.90;30.00;;;;;;5077166;28;20468;-59
2022/03/27 11:36:07;;;;;;;29.83;15.97;;;20.10;29.90;;;;;;5075498;28;20533;-60
2022/03/27 11:38:51;;;;;;;27.53;14.83;;;20.20;29.50;;;;;;5075848;28;20486;-60
2022/03/27 11:41:42;;;;;;;32.10;14.90;;;20.30;29.40;;;;;;5072584;28;20451;-59
2022/03/27 11:44:23;;;;;;;31.30;15.00;;;20.50;29.50;;;;;;5071829;28;20448;-61
2022/03/27 11:46:49;;;;;;;33.53;16.10;;;20.60;29.20;;;;;;5077302;28;20460;-62
2022/03/27 11:49:15;;;;;;;26.43;15.23;;;20.80;28.90;;;;;;5055591;28;20419;-60
2022/03/27 11:51:41;;;;;;;29.57;14.77;;;20.90;27.70;;;;;;5070478;28;20204;-61
2022/03/27 11:54:18;;;;;;;27.10;15.47;;;21.00;27.40;;;;;;5071022;28;20432;-61
2022/03/27 11:56:55;;;;;;;26.63;15.00;;;21.10;26.80;;;;;;5070580;28;20178;-59
2022/03/27 11:59:22;;;;;;;22.90;14.50;;;21.20;27.10;;;;;;5044660;28;20431;-61
2022/03/27 12:01:53;;;;;;;34.73;14.80;;;21.20;27.60;;;;;;5073753;28;20459;-61
2022/03/27 12:04:19;;;;;;;26.60;15.27;;;21.30;27.60;;;;;;5072261;28;20435;-63
2022/03/27 12:06:45;;;;;;;27.00;16.30;;;21.40;27.20;;;;;;5073926;28;20965;-63
2022/03/27 12:09:29;;;;;;;28.03;15.13;;;21.50;27.30;;;;;;5081526;28;20431;-63
2022/03/27 12:12:12;;;;;;;27.53;15.03;;;21.60;26.90;;;;;;5060439;28;20443;-64
2022/03/27 12:14:59;;;;;;;29.97;16.13;;;21.80;26.70;;;;;;5052589;28;20436;-63
2022/03/27 12:17:31;;;;;;;29.07;15.80;;;21.90;26.20;;;;;;5068242;28;20431;-64
2022/03/27 12:20:10;;;;;;;25.57;15.40;;;22.00;25.80;;;;;;5073725;28;20489;-62
2022/03/27 12:22:44;;;;;;;31.17;16.70;;;22.00;26.20;;;;;;5052512;28;20572;-63
2022/03/27 12:25:15;;;;;;;28.20;15.37;;;22.00;25.90;;;;;;5060203;28;20439;-64
2022/03/27 12:30:37;;;;;;;26.00;14.73;;;22.20;26.30;;;;;;5068212;28;20466;-59
2022/03/27 12:33:05;;;;;;;29.87;15.07;;;22.30;26.60;;;;;;5054057;28;20450;-61
2022/03/27 12:35:33;;;;;;;28.70;14.37;;;22.40;26.60;;;;;;5066712;28;20527;-61
2022/03/27 12:37:58;;;;;;;26.77;15.17;;;22.40;26.40;;;;;;5072708;28;20451;-61
2022/03/27 12:40:25;;;;;;;25.37;15.37;;;22.40;26.20;;;;;;5049100;28;20432;-61
2022/03/27 12:43:08;;;;;;;29.83;15.53;;;22.40;26.60;;;;;;5074956;28;20209;-61
2022/03/27 12:45:36;;;;;;;33.73;15.03;;;22.40;26.10;;;;;;5068141;28;21014;-59
2022/03/27 12:48:20;;;;;;;27.40;16.30;;;22.40;25.80;;;;;;5068856;28;20471;-61
2022/03/27 12:50:49;;;;;;;23.80;14.63;;;22.50;26.30;;;;;;5069804;28;20439;-61